createdAt,value
2022-08-16T00:00:48.949Z,20.31
2022-08-16T00:03:28.760Z,20.24
2022-08-16T00:06:08.119Z,20.14
2022-08-16T00:08:40.979Z,20.15
2022-08-16T00:11:16.751Z,20.18
2022-08-16T00:13:54.293Z,20.26
2022-08-16T00:17:01.661Z,20.29
2022-08-16T00:19:20.162Z,20.27
2022-08-16T00:21:54.478Z,20.29
2022-08-16T00:24:31.097Z,20.29
2022-08-16T00:27:04.419Z,20.29
2022-08-16T00:29:34.759Z,20.24
2022-08-16T00:32:07.033Z,20.12
2022-08-16T00:34:44.673Z,20.00
2022-08-16T00:37:57.869Z,19.96
2022-08-16T00:40:34.769Z,20.00
2022-08-16T00:43:12.057Z,20.05
2022-08-16T00:46:00.011Z,20.03
2022-08-16T00:48:43.718Z,19.99
2022-08-16T00:51:17.528Z,19.96
2022-08-16T00:53:49.215Z,19.91
2022-08-16T00:56:57.780Z,19.88
2022-08-16T00:59:15.208Z,19.86
2022-08-16T01:02:30.525Z,19.84
2022-08-16T01:05:10.434Z,19.86
2022-08-16T01:07:50.690Z,19.92
2022-08-16T01:10:32.201Z,19.96
2022-08-16T01:13:08.003Z,19.98
2022-08-16T01:15:43.055Z,19.98
2022-08-16T01:18:40.242Z,19.97
2022-08-16T01:21:24.174Z,19.93
2022-08-16T01:24:52.092Z,19.89
2022-08-16T01:27:08.946Z,19.84
2022-08-16T01:29:58.460Z,19.77
2022-08-16T01:32:34.310Z,19.71
2022-08-16T01:35:17.055Z,19.73
2022-08-16T01:37:53.078Z,19.78
2022-08-16T01:40:28.819Z,19.79
2022-08-16T01:42:59.184Z,19.83
2022-08-16T01:45:40.721Z,19.81
2022-08-16T01:48:19.264Z,19.79
2022-08-16T01:51:09.281Z,19.80
2022-08-16T01:53:42.834Z,19.79
2022-08-16T01:56:23.453Z,19.82
2022-08-16T01:58:57.934Z,19.82
2022-08-16T02:01:29.471Z,19.83
2022-08-16T02:04:04.095Z,19.82
2022-08-16T02:06:46.695Z,19.78
2022-08-16T02:09:22.624Z,19.82
2022-08-16T02:11:57.246Z,19.86
2022-08-16T02:14:30.823Z,19.92
2022-08-16T02:17:02.893Z,19.92
2022-08-16T02:19:59.506Z,19.89
2022-08-16T02:22:35.167Z,19.85
2022-08-16T02:25:52.121Z,19.81
2022-08-16T02:28:19.368Z,19.80
2022-08-16T02:30:51.995Z,19.80
2022-08-16T02:33:24.417Z,19.79
2022-08-16T02:35:58.400Z,19.75
2022-08-16T02:38:31.472Z,19.73
2022-08-16T02:41:07.274Z,19.71
2022-08-16T02:43:39.949Z,19.67
2022-08-16T02:46:11.188Z,19.62
2022-08-16T02:48:49.352Z,19.59
2022-08-16T02:51:23.517Z,19.39
2022-08-16T02:53:53.965Z,19.24
2022-08-16T02:56:25.716Z,19.23
2022-08-16T02:59:02.774Z,19.17
2022-08-16T03:01:42.325Z,19.20
2022-08-16T03:04:39.565Z,19.20
2022-08-16T03:07:10.178Z,19.20
2022-08-16T03:09:45.166Z,19.20
2022-08-16T03:12:18.886Z,19.20
2022-08-16T03:14:49.767Z,19.20
2022-08-16T03:17:22.546Z,19.23
2022-08-16T03:20:02.768Z,19.25
2022-08-16T03:22:39.333Z,19.28
2022-08-16T03:25:17.166Z,19.30
2022-08-16T03:27:55.503Z,19.28
2022-08-16T03:30:29.863Z,19.12
2022-08-16T03:33:05.714Z,19.01
2022-08-16T03:35:42.894Z,19.00
2022-08-16T03:38:35.462Z,18.99
2022-08-16T03:41:17.031Z,18.95
2022-08-16T03:43:58.894Z,18.80
2022-08-16T03:46:45.066Z,18.75
2022-08-16T03:49:23.264Z,18.72
2022-08-16T03:52:07.844Z,18.78
2022-08-16T03:54:38.456Z,18.82
2022-08-16T03:57:24.624Z,18.84
2022-08-16T04:00:11.897Z,18.87
2022-08-16T04:03:06.977Z,18.87
2022-08-16T04:05:44.248Z,18.80
2022-08-16T04:08:23.052Z,18.60
2022-08-16T04:10:58.011Z,18.59
2022-08-16T04:14:00.407Z,18.61
2022-08-16T04:16:26.223Z,18.65
2022-08-16T04:19:02.309Z,18.70
2022-08-16T04:21:45.737Z,18.75
2022-08-16T04:24:17.605Z,18.81
2022-08-16T04:26:47.896Z,18.84
2022-08-16T04:29:23.636Z,18.77
2022-08-16T04:31:57.958Z,18.75
2022-08-16T04:34:36.766Z,18.79
2022-08-16T04:37:08.544Z,18.84
2022-08-16T04:39:46.629Z,18.91
2022-08-16T04:42:26.535Z,19.01
2022-08-16T04:45:02.050Z,19.10
2022-08-16T04:47:33.408Z,19.19
2022-08-16T04:50:09.046Z,19.23
2022-08-16T04:52:40.246Z,19.25
2022-08-16T04:55:15.371Z,19.31
2022-08-16T04:57:53.467Z,19.38
2022-08-16T05:00:32.933Z,19.44
2022-08-16T05:03:15.323Z,19.50
2022-08-16T05:05:55.850Z,19.56
2022-08-16T05:08:31.342Z,19.56
2022-08-16T05:11:11.086Z,19.47
2022-08-16T05:13:43.057Z,19.48
2022-08-16T05:16:23.100Z,19.50
2022-08-16T05:19:01.880Z,19.53
2022-08-16T05:21:38.464Z,19.59
2022-08-16T05:24:10.852Z,19.67
2022-08-16T05:26:43.127Z,19.74
2022-08-16T05:29:20.616Z,19.80
2022-08-16T05:32:32.798Z,19.85
2022-08-16T05:34:58.736Z,19.91
2022-08-16T05:37:39.502Z,19.98
2022-08-16T05:40:14.016Z,20.03
2022-08-16T05:42:46.163Z,20.10
2022-08-16T05:45:21.845Z,20.17
2022-08-16T05:48:00.025Z,20.25
2022-08-16T05:50:41.600Z,20.33
2022-08-16T05:53:11.908Z,20.39
2022-08-16T05:55:52.787Z,20.47
2022-08-16T05:58:31.558Z,20.54
2022-08-16T06:01:04.004Z,20.62
2022-08-16T06:03:36.666Z,20.74
2022-08-16T06:06:13.126Z,20.84
2022-08-16T06:08:57.946Z,20.94
2022-08-16T06:11:28.436Z,21.02
2022-08-16T06:14:01.766Z,21.10
2022-08-16T06:16:50.718Z,21.19
2022-08-16T06:19:23.684Z,21.25
2022-08-16T06:22:02.067Z,21.29
2022-08-16T06:24:54.217Z,21.23
2022-08-16T06:27:22.905Z,21.21
2022-08-16T06:29:53.496Z,21.15
2022-08-16T06:32:27.152Z,21.11
2022-08-16T06:35:02.667Z,21.14
2022-08-16T06:37:37.317Z,21.18
2022-08-16T06:40:12.867Z,21.13
2022-08-16T06:42:57.190Z,21.15
2022-08-16T06:45:46.736Z,21.19
2022-08-16T06:48:32.750Z,21.30
2022-08-16T06:51:06.733Z,21.40
2022-08-16T06:53:37.890Z,21.44
2022-08-16T06:56:14.622Z,21.54
2022-08-16T06:59:02.025Z,21.65
2022-08-16T07:01:43.404Z,21.73
2022-08-16T07:04:31.937Z,21.86
2022-08-16T07:07:12.343Z,22.00
2022-08-16T07:09:44.735Z,22.04
2022-08-16T07:12:15.402Z,22.15
2022-08-16T07:14:48.848Z,22.26
2022-08-16T07:17:21.247Z,22.36
2022-08-16T07:20:03.381Z,22.41
2022-08-16T07:22:58.999Z,22.61
2022-08-16T07:25:48.518Z,22.76
2022-08-16T07:28:24.205Z,22.90
2022-08-16T07:30:55.965Z,23.09
2022-08-16T07:33:51.212Z,23.26
2022-08-16T07:36:28.934Z,23.46
2022-08-16T07:38:59.415Z,23.64
2022-08-16T07:41:30.807Z,23.83
2022-08-16T07:44:03.426Z,24.06
2022-08-16T07:46:47.843Z,24.34
2022-08-16T07:49:25.855Z,24.63
2022-08-16T07:52:02.576Z,24.86
2022-08-16T07:54:53.120Z,24.80
2022-08-16T07:57:24.432Z,25.11
2022-08-16T07:59:57.137Z,25.42
2022-08-16T08:02:36.556Z,25.70
2022-08-16T08:05:08.825Z,25.85
2022-08-16T08:07:45.287Z,26.17
2022-08-16T08:10:29.204Z,26.37
2022-08-16T08:13:02.218Z,26.51
2022-08-16T08:15:34.530Z,26.66
2022-08-16T08:18:30.201Z,26.90
2022-08-16T08:20:59.452Z,27.17
2022-08-16T08:23:36.667Z,27.26
2022-08-16T08:26:17.484Z,27.37
2022-08-16T08:28:48.095Z,27.64
2022-08-16T08:31:20.614Z,27.64
2022-08-16T08:33:51.827Z,27.80
2022-08-16T08:36:33.497Z,27.86
2022-08-16T08:39:12.715Z,27.86
2022-08-16T08:41:46.490Z,27.83
2022-08-16T08:44:28.631Z,27.98
2022-08-16T08:47:10.957Z,28.15
2022-08-16T08:49:50.358Z,28.15
2022-08-16T08:52:34.171Z,28.35
2022-08-16T08:55:14.527Z,28.43
2022-08-16T08:57:51.831Z,28.39
2022-08-16T09:00:51.259Z,28.63
2022-08-16T09:03:26.037Z,28.79
2022-08-16T09:05:59.103Z,28.55
2022-08-16T09:08:32.278Z,28.53
2022-08-16T09:11:08.995Z,28.58
2022-08-16T09:13:47.091Z,28.59
2022-08-16T09:17:01.745Z,28.78
2022-08-16T09:19:09.996Z,28.92
2022-08-16T09:21:40.315Z,29.01
2022-08-16T09:24:12.374Z,29.16
2022-08-16T09:27:02.725Z,29.11
2022-08-16T09:29:44.691Z,28.96
2022-08-16T09:32:28.795Z,29.03
2022-08-16T09:35:01.804Z,28.89
2022-08-16T09:37:39.824Z,28.88
2022-08-16T09:40:32.635Z,28.77
2022-08-16T09:43:07.581Z,28.71
2022-08-16T09:45:41.168Z,28.54
2022-08-16T09:48:44.294Z,28.53
2022-08-16T09:51:11.288Z,28.61
2022-08-16T09:53:43.845Z,28.65
2022-08-16T09:56:28.476Z,28.55
2022-08-16T09:59:07.767Z,28.68
2022-08-16T10:01:43.512Z,28.93
2022-08-16T10:04:34.308Z,28.98
2022-08-16T10:07:11.868Z,29.03
2022-08-16T10:09:54.526Z,29.14
2022-08-16T10:12:47.051Z,29.46
2022-08-16T10:15:30.262Z,29.44
2022-08-16T10:18:40.997Z,29.54
2022-08-16T10:20:51.764Z,29.75
2022-08-16T10:23:22.596Z,29.57
2022-08-16T10:27:18.285Z,29.46
2022-08-16T10:28:44.128Z,29.39
2022-08-16T10:31:43.509Z,29.41
2022-08-16T10:34:04.041Z,29.25
2022-08-16T10:36:38.721Z,29.49
2022-08-16T10:39:09.696Z,29.75
2022-08-16T10:41:39.525Z,30.04
2022-08-16T10:44:09.489Z,30.26
2022-08-16T10:46:41.898Z,30.28
2022-08-16T10:49:11.521Z,30.20
2022-08-16T10:52:02.755Z,30.01
2022-08-16T10:54:58.658Z,29.95
2022-08-16T10:57:27.427Z,30.12
2022-08-16T11:00:05.864Z,29.89
2022-08-16T11:03:41.822Z,29.41
2022-08-16T11:06:00.042Z,29.42
2022-08-16T11:08:35.581Z,29.34
2022-08-16T11:11:12.778Z,29.52
2022-08-16T11:14:00.025Z,29.74
2022-08-16T11:19:25.964Z,30.13
2022-08-16T11:22:38.732Z,30.07
2022-08-16T11:25:11.903Z,30.20
2022-08-16T11:27:38.486Z,30.35
2022-08-16T11:30:12.851Z,30.54
2022-08-16T11:32:50.362Z,30.61
2022-08-16T11:38:46.512Z,30.64
2022-08-16T11:41:08.464Z,30.76
2022-08-16T11:43:41.918Z,30.58
2022-08-16T11:46:45.673Z,30.68
2022-08-16T11:49:12.683Z,30.51
2022-08-16T11:51:45.026Z,30.67
2022-08-16T11:54:20.979Z,30.80
2022-08-16T11:56:57.197Z,30.94
2022-08-16T11:59:29.915Z,31.08
2022-08-16T12:02:04.375Z,31.19
2022-08-16T12:04:53.444Z,31.22
2022-08-16T12:07:24.088Z,31.27
2022-08-16T12:09:54.947Z,31.33
2022-08-16T12:12:28.517Z,31.32
2022-08-16T12:15:00.222Z,31.39
2022-08-16T12:17:31.511Z,31.40
2022-08-16T12:20:04.834Z,31.40
2022-08-16T12:22:36.715Z,31.45
2022-08-16T12:25:07.997Z,31.48
2022-08-16T12:27:39.416Z,31.59
2022-08-16T12:30:26.352Z,31.63
2022-08-16T12:33:03.073Z,31.71
2022-08-16T12:35:35.266Z,31.77
2022-08-16T12:38:37.973Z,31.74
2022-08-16T12:40:57.914Z,31.73
2022-08-16T12:43:31.227Z,31.87
2022-08-16T12:46:02.098Z,31.90
2022-08-16T12:48:52.770Z,31.99
2022-08-16T12:51:57.606Z,31.95
2022-08-16T12:54:21.869Z,32.03
2022-08-16T12:56:52.818Z,32.04
2022-08-16T13:00:06.260Z,32.05
2022-08-16T13:03:09.055Z,32.14
2022-08-16T13:05:45.088Z,32.27
2022-08-16T13:08:30.911Z,32.24
2022-08-16T13:11:04.207Z,32.20
2022-08-16T13:13:34.962Z,32.28
2022-08-16T13:16:15.444Z,32.47
2022-08-16T13:18:51.655Z,32.18
2022-08-16T13:21:24.071Z,32.00
2022-08-16T13:23:55.852Z,31.71
2022-08-16T13:26:26.817Z,31.64
2022-08-16T13:28:56.525Z,31.55
2022-08-16T13:31:26.682Z,31.53
2022-08-16T13:33:58.649Z,31.50
2022-08-16T13:36:49.416Z,31.44
2022-08-16T13:39:25.419Z,31.36
2022-08-16T13:46:16.043Z,29.87
2022-08-16T13:48:55.906Z,28.66
2022-08-16T13:51:55.378Z,28.21
2022-08-16T13:54:31.362Z,28.02
2022-08-16T13:57:02.228Z,27.76
2022-08-16T14:00:34.207Z,27.38
2022-08-16T14:04:26.222Z,27.27
2022-08-16T14:08:10.257Z,26.93
2022-08-16T14:11:39.679Z,26.64
2022-08-16T14:18:15.576Z,26.06
2022-08-16T14:20:48.754Z,25.97
2022-08-16T14:23:23.700Z,25.93
2022-08-16T14:25:54.061Z,25.77
2022-08-16T14:28:25.905Z,25.23
2022-08-16T14:30:56.295Z,24.93
2022-08-16T14:33:26.180Z,24.73
2022-08-16T14:36:01.820Z,24.67
2022-08-16T14:38:39.379Z,24.71
2022-08-16T14:41:10.306Z,24.55
2022-08-16T14:43:40.386Z,24.23
2022-08-16T14:46:10.151Z,23.87
2022-08-16T14:48:40.653Z,23.88
2022-08-16T14:51:11.202Z,23.89
2022-08-16T14:53:45.457Z,23.96
2022-08-16T14:56:38.119Z,24.03
2022-08-16T14:59:05.504Z,24.02
2022-08-16T15:01:58.213Z,24.05
2022-08-16T15:04:39.568Z,24.07
2022-08-16T15:07:13.922Z,24.16
2022-08-16T15:10:01.207Z,24.18
2022-08-16T15:12:34.004Z,23.89
2022-08-16T15:15:12.907Z,23.67
2022-08-16T15:17:56.625Z,23.49
2022-08-16T15:20:29.848Z,23.41
2022-08-16T15:22:59.875Z,23.34
2022-08-16T15:25:32.873Z,23.20
2022-08-16T15:28:06.074Z,23.24
2022-08-16T15:30:57.014Z,23.25
2022-08-16T15:33:32.582Z,23.08
2022-08-16T15:36:05.760Z,23.08
2022-08-16T15:39:05.538Z,23.07
2022-08-16T15:41:49.280Z,23.05
2022-08-16T15:44:23.097Z,23.12
2022-08-16T15:46:58.835Z,23.13
2022-08-16T15:49:38.004Z,23.00
2022-08-16T15:52:20.581Z,22.80
2022-08-16T15:54:53.414Z,22.67
2022-08-16T15:57:36.945Z,22.56
2022-08-16T16:00:15.650Z,22.49
2022-08-16T16:02:46.374Z,22.57
2022-08-16T16:05:22.406Z,22.66
2022-08-16T16:07:56.242Z,22.73
2022-08-16T16:10:29.429Z,22.76
2022-08-16T16:13:20.968Z,22.73
2022-08-16T16:15:53.393Z,22.66
2022-08-16T16:18:25.634Z,22.46
2022-08-16T16:21:00.994Z,22.36
2022-08-16T16:23:34.945Z,22.29
2022-08-16T16:26:07.487Z,22.23
2022-08-16T16:29:05.576Z,22.18
2022-08-16T16:31:28.847Z,22.17
2022-08-16T16:34:08.293Z,22.17
2022-08-16T16:36:41.373Z,22.06
2022-08-16T16:39:21.923Z,22.01
2022-08-16T16:41:53.356Z,22.10
2022-08-16T16:44:32.087Z,22.15
2022-08-16T16:47:04.150Z,22.19
2022-08-16T16:49:33.920Z,22.12
2022-08-16T16:52:07.221Z,22.10
2022-08-16T16:54:37.386Z,22.06
2022-08-16T16:57:27.855Z,22.04
2022-08-16T16:59:57.743Z,22.01
2022-08-16T17:02:41.487Z,22.03
2022-08-16T17:05:18.214Z,22.03
2022-08-16T17:07:49.607Z,22.06
2022-08-16T17:10:46.045Z,22.10
2022-08-16T17:13:10.183Z,22.14
2022-08-16T17:15:39.893Z,22.18
2022-08-16T17:19:02.024Z,22.23
2022-08-16T17:20:59.784Z,22.23
2022-08-16T17:23:58.897Z,22.23
2022-08-16T17:26:19.754Z,22.27
2022-08-16T17:28:59.934Z,22.27
2022-08-16T17:31:34.745Z,22.20
2022-08-16T17:34:30.343Z,22.20
2022-08-16T17:37:05.251Z,22.20
2022-08-16T17:39:57.274Z,22.21
2022-08-16T17:42:31.485Z,22.14
2022-08-16T17:45:04.119Z,22.06
2022-08-16T17:47:34.230Z,22.02
2022-08-16T17:50:06.876Z,22.00
2022-08-16T17:52:49.411Z,22.08
2022-08-16T17:55:25.705Z,22.00
2022-08-16T17:57:59.959Z,21.93
2022-08-16T18:00:32.558Z,21.97
2022-08-16T18:03:06.114Z,21.94
2022-08-16T18:05:41.906Z,21.92
2022-08-16T18:08:14.439Z,21.83
2022-08-16T18:10:47.066Z,21.83
2022-08-16T18:13:18.507Z,21.86
2022-08-16T18:15:51.247Z,21.84
2022-08-16T18:18:23.936Z,21.84
2022-08-16T18:21:13.535Z,21.86
2022-08-16T18:23:43.222Z,21.85
2022-08-16T18:26:15.785Z,21.75
2022-08-16T18:28:47.184Z,21.61
2022-08-16T18:31:18.996Z,21.46
2022-08-16T18:33:54.719Z,21.36
2022-08-16T18:36:28.786Z,21.30
2022-08-16T18:38:59.442Z,21.31
2022-08-16T18:41:32.144Z,21.35
2022-08-16T18:44:25.566Z,21.40
2022-08-16T18:46:55.140Z,21.39
2022-08-16T18:49:27.574Z,21.42
2022-08-16T18:52:00.871Z,21.44
2022-08-16T18:54:33.357Z,21.37
2022-08-16T18:57:08.037Z,21.32
2022-08-16T18:59:39.708Z,21.28
2022-08-16T19:02:09.563Z,21.09
2022-08-16T19:04:59.955Z,21.05
2022-08-16T19:07:31.593Z,21.06
2022-08-16T19:10:04.328Z,21.08
2022-08-16T19:12:38.477Z,21.06
2022-08-16T19:15:16.251Z,21.02
2022-08-16T19:17:46.879Z,21.01
2022-08-16T19:20:19.967Z,21.00
2022-08-16T19:23:05.611Z,20.91
2022-08-16T19:25:46.846Z,20.78
2022-08-16T19:28:51.734Z,20.77
2022-08-16T19:31:20.767Z,20.78
2022-08-16T19:33:56.082Z,20.72
2022-08-16T19:36:35.657Z,20.68
2022-08-16T19:39:10.016Z,20.73
2022-08-16T19:41:43.305Z,20.75
2022-08-16T19:44:13.511Z,20.76
2022-08-16T19:46:45.365Z,20.77
2022-08-16T19:49:16.052Z,20.77
2022-08-16T19:51:47.163Z,20.73
2022-08-16T19:54:20.258Z,20.68
2022-08-16T19:56:51.623Z,20.66
2022-08-16T19:59:39.293Z,20.57
2022-08-16T20:02:25.591Z,20.57
2022-08-16T20:05:07.376Z,20.60
2022-08-16T20:07:37.236Z,20.64
2022-08-16T20:10:08.827Z,20.65
2022-08-16T20:12:41.924Z,20.61
2022-08-16T20:15:17.387Z,20.60
2022-08-16T20:17:48.590Z,20.56
2022-08-16T20:20:24.027Z,20.55
2022-08-16T20:22:57.219Z,20.51
2022-08-16T20:25:30.065Z,20.49
2022-08-16T20:28:01.301Z,20.48
2022-08-16T20:30:31.550Z,20.48
2022-08-16T20:33:13.836Z,20.48
2022-08-16T20:35:44.459Z,20.47
2022-08-16T20:38:14.197Z,20.47
2022-08-16T20:40:44.414Z,20.47
2022-08-16T20:43:17.201Z,20.48
2022-08-16T20:45:47.968Z,20.49
2022-08-16T20:48:17.945Z,20.46
2022-08-16T20:50:47.717Z,20.42
2022-08-16T20:53:17.618Z,20.38
2022-08-16T20:55:47.767Z,20.36
2022-08-16T20:58:17.824Z,20.31
2022-08-16T21:00:47.594Z,20.31
2022-08-16T21:03:25.834Z,20.32
2022-08-16T21:05:59.080Z,20.31
2022-08-16T21:08:51.427Z,20.32
2022-08-16T21:11:21.102Z,20.36
2022-08-16T21:13:50.925Z,20.39
2022-08-16T21:16:24.956Z,20.41
2022-08-16T21:18:57.466Z,20.42
2022-08-16T21:21:31.888Z,20.41
2022-08-16T21:24:03.647Z,20.41
2022-08-16T21:26:34.610Z,20.41
2022-08-16T21:29:11.284Z,20.41
2022-08-16T21:31:49.878Z,20.41
2022-08-16T21:34:19.545Z,20.41
2022-08-16T21:36:49.457Z,20.40
2022-08-16T21:39:19.164Z,20.38
2022-08-16T21:41:49.016Z,20.33
2022-08-16T21:44:18.667Z,20.31
2022-08-16T21:46:48.478Z,20.24
2022-08-16T21:49:17.967Z,20.17
2022-08-16T21:51:47.669Z,20.17
2022-08-16T21:54:19.825Z,20.16
2022-08-16T21:56:49.733Z,20.11
2022-08-16T21:59:19.436Z,20.09
2022-08-16T22:01:49.334Z,20.08
2022-08-16T22:04:37.626Z,20.05
2022-08-16T22:07:09.236Z,20.00
2022-08-16T22:09:39.167Z,19.99
2022-08-16T22:12:09.888Z,19.99
2022-08-16T22:14:39.727Z,19.95
2022-08-16T22:17:09.457Z,19.85
2022-08-16T22:19:39.148Z,19.78
2022-08-16T22:22:08.907Z,19.76
2022-08-16T22:24:38.970Z,19.77
2022-08-16T22:27:08.964Z,19.77
2022-08-16T22:29:42.159Z,19.76
2022-08-16T22:32:12.396Z,19.73
2022-08-16T22:34:42.079Z,19.71
2022-08-16T22:37:11.687Z,19.70
2022-08-16T22:39:41.360Z,19.66
2022-08-16T22:42:11.988Z,19.64
2022-08-16T22:44:46.116Z,19.62
2022-08-16T22:47:16.531Z,19.61
2022-08-16T22:49:47.869Z,19.57
2022-08-16T22:52:48.788Z,19.56
2022-08-16T22:55:09.336Z,19.52
2022-08-16T22:57:39.008Z,19.49
2022-08-16T23:00:13.437Z,19.48
2022-08-16T23:03:03.167Z,19.47
2022-08-16T23:05:35.026Z,19.44
2022-08-16T23:08:06.546Z,19.43
2022-08-16T23:10:36.508Z,19.42
2022-08-16T23:13:08.477Z,19.41
2022-08-16T23:15:43.527Z,19.36
2022-08-16T23:18:15.319Z,19.28
2022-08-16T23:20:47.695Z,19.24
2022-08-16T23:23:21.990Z,19.21
2022-08-16T23:25:55.057Z,19.19
2022-08-16T23:28:27.544Z,19.16
2022-08-16T23:30:58.842Z,19.05
2022-08-16T23:33:29.183Z,19.03
2022-08-16T23:36:01.320Z,19.03
2022-08-16T23:38:38.242Z,19.01
2022-08-16T23:41:12.191Z,19.01
2022-08-16T23:43:43.775Z,19.03
2022-08-16T23:46:15.923Z,19.03
2022-08-16T23:49:55.977Z,19.02
2022-08-16T23:51:36.121Z,19.01
2022-08-16T23:54:09.194Z,19.00
2022-08-16T23:56:40.495Z,18.92
2022-08-16T23:59:10.960Z,18.88
